sensor_id;sensor_type;location;lat;lon;timestamp;pressure;altitude;pressure_sealevel;temperature;humidity
45050;BME280;61798;48.048;-1.928;2022-08-19T00:01:03;100990.63;;;17.28;76.64
45050;BME280;61798;48.048;-1.928;2022-08-19T00:03:08;100982.66;;;17.33;76.48
45050;BME280;61798;48.048;-1.928;2022-08-19T00:05:14;100977.34;;;17.07;78.65
45050;BME280;61798;48.048;-1.928;2022-08-19T00:07:21;100978.75;;;17.10;79.73
45050;BME280;61798;48.048;-1.928;2022-08-19T00:09:27;100977.47;;;17.31;78.71
45050;BME280;61798;48.048;-1.928;2022-08-19T00:11:33;100979.56;;;17.29;79.97
45050;BME280;61798;48.048;-1.928;2022-08-19T00:13:41;100981.81;;;17.32;79.09
45050;BME280;61798;48.048;-1.928;2022-08-19T00:15:46;100981.38;;;17.36;79.53
45050;BME280;61798;48.048;-1.928;2022-08-19T00:17:52;100979.84;;;17.40;78.93
45050;BME280;61798;48.048;-1.928;2022-08-19T00:19:59;100981.13;;;17.37;80.20
45050;BME280;61798;48.048;-1.928;2022-08-19T00:22:05;100978.41;;;17.37;79.67
45050;BME280;61798;48.048;-1.928;2022-08-19T00:24:12;100976.53;;;17.38;80.05
45050;BME280;61798;48.048;-1.928;2022-08-19T00:26:18;100966.03;;;17.29;80.76
45050;BME280;61798;48.048;-1.928;2022-08-19T00:28:23;100973.25;;;17.36;79.91
45050;BME280;61798;48.048;-1.928;2022-08-19T00:30:29;100975.13;;;17.35;80.54
45050;BME280;61798;48.048;-1.928;2022-08-19T00:32:35;100968.22;;;17.20;81.88
45050;BME280;61798;48.048;-1.928;2022-08-19T00:34:41;100970.75;;;17.34;81.10
45050;BME280;61798;48.048;-1.928;2022-08-19T00:36:47;100964.63;;;17.27;81.59
45050;BME280;61798;48.048;-1.928;2022-08-19T00:38:53;100956.84;;;17.30;81.97
45050;BME280;61798;48.048;-1.928;2022-08-19T00:40:59;100965.44;;;17.27;82.22
45050;BME280;61798;48.048;-1.928;2022-08-19T00:43:09;100955.44;;;17.40;81.11
45050;BME280;61798;48.048;-1.928;2022-08-19T00:45:17;100960.16;;;17.32;81.90
45050;BME280;61798;48.048;-1.928;2022-08-19T00:47:23;100966.72;;;17.25;83.06
45050;BME280;61798;48.048;-1.928;2022-08-19T00:49:29;100964.19;;;17.42;81.80
45050;BME280;61798;48.048;-1.928;2022-08-19T00:51:36;100962.81;;;17.51;81.09
45050;BME280;61798;48.048;-1.928;2022-08-19T00:53:42;100959.28;;;17.51;82.26
45050;BME280;61798;48.048;-1.928;2022-08-19T00:55:49;100961.97;;;17.51;81.74
45050;BME280;61798;48.048;-1.928;2022-08-19T00:57:57;100962.88;;;17.44;82.18
45050;BME280;61798;48.048;-1.928;2022-08-19T01:00:06;100960.34;;;17.62;81.97
45050;BME280;61798;48.048;-1.928;2022-08-19T01:02:15;100954.41;;;17.41;83.68
45050;BME280;61798;48.048;-1.928;2022-08-19T01:04:21;100962.69;;;17.58;82.46
45050;BME280;61798;48.048;-1.928;2022-08-19T01:06:27;100956.44;;;17.46;83.15
45050;BME280;61798;48.048;-1.928;2022-08-19T01:08:33;100958.09;;;17.47;83.11
45050;BME280;61798;48.048;-1.928;2022-08-19T01:10:40;100959.47;;;17.37;84.10
45050;BME280;61798;48.048;-1.928;2022-08-19T01:12:48;100953.38;;;17.54;82.46
45050;BME280;61798;48.048;-1.928;2022-08-19T01:14:54;100956.81;;;17.61;82.68
45050;BME280;61798;48.048;-1.928;2022-08-19T01:17:00;100960.09;;;17.51;83.30
45050;BME280;61798;48.048;-1.928;2022-08-19T01:19:12;100964.41;;;17.40;83.89
45050;BME280;61798;48.048;-1.928;2022-08-19T01:23:30;100952.34;;;17.55;83.63
45050;BME280;61798;48.048;-1.928;2022-08-19T01:25:48;100961.03;;;17.57;83.35
45050;BME280;61798;48.048;-1.928;2022-08-19T01:27:57;100950.31;;;17.50;83.50
45050;BME280;61798;48.048;-1.928;2022-08-19T01:30:03;100954.78;;;17.57;82.90
45050;BME280;61798;48.048;-1.928;2022-08-19T01:32:11;100948.47;;;17.63;83.06
45050;BME280;61798;48.048;-1.928;2022-08-19T01:34:17;100956.34;;;17.64;83.01
45050;BME280;61798;48.048;-1.928;2022-08-19T01:36:24;100951.72;;;17.53;83.32
45050;BME280;61798;48.048;-1.928;2022-08-19T01:38:34;100949.72;;;17.60;83.10
45050;BME280;61798;48.048;-1.928;2022-08-19T01:40:40;100955.50;;;17.64;82.87
45050;BME280;61798;48.048;-1.928;2022-08-19T01:42:48;100958.22;;;17.64;82.72
45050;BME280;61798;48.048;-1.928;2022-08-19T01:44:54;100949.84;;;17.53;83.97
45050;BME280;61798;48.048;-1.928;2022-08-19T01:47:00;100954.44;;;17.53;83.64
45050;BME280;61798;48.048;-1.928;2022-08-19T01:49:06;100954.44;;;17.53;84.15
45050;BME280;61798;48.048;-1.928;2022-08-19T01:51:13;100951.88;;;17.58;82.92
45050;BME280;61798;48.048;-1.928;2022-08-19T01:55:49;100959.59;;;17.42;84.29
45050;BME280;61798;48.048;-1.928;2022-08-19T01:57:57;100950.97;;;17.33;85.77
45050;BME280;61798;48.048;-1.928;2022-08-19T02:00:05;100954.28;;;17.48;83.57
45050;BME280;61798;48.048;-1.928;2022-08-19T02:02:12;100948.28;;;17.46;84.23
45050;BME280;61798;48.048;-1.928;2022-08-19T02:04:19;100961.97;;;17.51;84.78
45050;BME280;61798;48.048;-1.928;2022-08-19T02:06:26;100954.44;;;17.53;83.85
45050;BME280;61798;48.048;-1.928;2022-08-19T02:08:33;100963.59;;;17.52;83.79
45050;BME280;61798;48.048;-1.928;2022-08-19T02:10:40;100955.44;;;17.40;85.37
45050;BME280;61798;48.048;-1.928;2022-08-19T02:12:47;100954.53;;;17.46;84.24
45050;BME280;61798;48.048;-1.928;2022-08-19T02:14:53;100955.00;;;17.43;84.28
45050;BME280;61798;48.048;-1.928;2022-08-19T02:16:58;100952.88;;;17.45;83.99
45050;BME280;61798;48.048;-1.928;2022-08-19T02:19:04;100948.47;;;17.32;86.52
45050;BME280;61798;48.048;-1.928;2022-08-19T02:21:10;100955.59;;;17.45;84.45
45050;BME280;61798;48.048;-1.928;2022-08-19T02:23:16;100954.03;;;17.37;84.96
45050;BME280;61798;48.048;-1.928;2022-08-19T02:25:22;100957.47;;;17.44;84.83
45050;BME280;61798;48.048;-1.928;2022-08-19T02:27:28;100963.25;;;17.48;84.50
45050;BME280;61798;48.048;-1.928;2022-08-19T02:29:33;100955.63;;;17.57;84.01
45050;BME280;61798;48.048;-1.928;2022-08-19T02:31:39;100948.16;;;17.40;85.62
45050;BME280;61798;48.048;-1.928;2022-08-19T02:33:45;100952.38;;;17.36;85.42
45050;BME280;61798;48.048;-1.928;2022-08-19T02:35:52;100957.16;;;17.53;84.43
45050;BME280;61798;48.048;-1.928;2022-08-19T02:37:57;100961.13;;;17.38;85.48
45050;BME280;61798;48.048;-1.928;2022-08-19T02:40:21;100960.31;;;17.50;84.48
45050;BME280;61798;48.048;-1.928;2022-08-19T02:42:27;100959.28;;;17.51;85.20
45050;BME280;61798;48.048;-1.928;2022-08-19T02:44:33;100960.19;;;17.44;85.39
45050;BME280;61798;48.048;-1.928;2022-08-19T02:46:38;100958.28;;;17.33;87.11
45050;BME280;61798;48.048;-1.928;2022-08-19T02:48:45;100950.03;;;17.40;85.03
45050;BME280;61798;48.048;-1.928;2022-08-19T02:50:51;100956.66;;;17.44;85.80
45050;BME280;61798;48.048;-1.928;2022-08-19T02:53:00;100962.88;;;17.44;85.04
45050;BME280;61798;48.048;-1.928;2022-08-19T02:55:06;100960.53;;;17.48;85.41
45050;BME280;61798;48.048;-1.928;2022-08-19T02:57:12;100960.78;;;17.47;85.49
45050;BME280;61798;48.048;-1.928;2022-08-19T02:59:17;100973.50;;;17.46;85.56
45050;BME280;61798;48.048;-1.928;2022-08-19T03:01:28;100972.84;;;17.63;83.91
45050;BME280;61798;48.048;-1.928;2022-08-19T03:03:34;100955.63;;;17.57;85.17
45050;BME280;61798;48.048;-1.928;2022-08-19T03:05:39;100963.06;;;17.62;84.86
45050;BME280;61798;48.048;-1.928;2022-08-19T03:07:45;100961.88;;;17.58;85.44
45050;BME280;61798;48.048;-1.928;2022-08-19T03:09:51;100956.69;;;17.68;85.46
45050;BME280;61798;48.048;-1.928;2022-08-19T03:11:58;100955.47;;;17.52;85.55
45050;BME280;61798;48.048;-1.928;2022-08-19T03:14:04;100959.25;;;17.39;88.19
45050;BME280;61798;48.048;-1.928;2022-08-19T03:16:10;100952.91;;;17.57;85.49
45050;BME280;61798;48.048;-1.928;2022-08-19T03:18:16;100957.16;;;17.53;86.18
45050;BME280;61798;48.048;-1.928;2022-08-19T03:20:22;100957.03;;;17.60;85.52
45050;BME280;61798;48.048;-1.928;2022-08-19T03:22:27;100955.00;;;17.43;87.07
45050;BME280;61798;48.048;-1.928;2022-08-19T03:24:34;100961.25;;;17.43;87.95
45050;BME280;61798;48.048;-1.928;2022-08-19T03:26:40;100959.38;;;17.56;85.85
45050;BME280;61798;48.048;-1.928;2022-08-19T03:28:47;100961.88;;;17.58;86.42
45050;BME280;61798;48.048;-1.928;2022-08-19T03:30:58;100964.81;;;17.56;87.31
45050;BME280;61798;48.048;-1.928;2022-08-19T03:33:05;100954.78;;;17.57;85.78
45050;BME280;61798;48.048;-1.928;2022-08-19T03:35:11;100963.38;;;17.53;87.00
45050;BME280;61798;48.048;-1.928;2022-08-19T03:37:16;100959.13;;;17.46;87.48
45050;BME280;61798;48.048;-1.928;2022-08-19T03:39:23;100957.75;;;17.55;86.88
45050;BME280;61798;48.048;-1.928;2022-08-19T03:41:33;100961.41;;;17.61;86.07
45050;BME280;61798;48.048;-1.928;2022-08-19T03:43:42;100960.31;;;17.50;86.87
45050;BME280;61798;48.048;-1.928;2022-08-19T03:45:48;100959.53;;;17.61;86.55
45050;BME280;61798;48.048;-1.928;2022-08-19T03:47:54;100963.38;;;17.53;86.48
45050;BME280;61798;48.048;-1.928;2022-08-19T03:50:00;100962.34;;;17.54;87.38
45050;BME280;61798;48.048;-1.928;2022-08-19T03:52:05;100962.44;;;17.60;86.05
45050;BME280;61798;48.048;-1.928;2022-08-19T03:54:13;100963.75;;;17.57;86.99
45050;BME280;61798;48.048;-1.928;2022-08-19T03:56:19;100962.56;;;17.53;87.82
45050;BME280;61798;48.048;-1.928;2022-08-19T03:58:25;100968.69;;;17.60;87.83
45050;BME280;61798;48.048;-1.928;2022-08-19T04:00:33;100960.31;;;17.50;87.49
45050;BME280;61798;48.048;-1.928;2022-08-19T04:02:38;100959.84;;;17.53;87.93
45050;BME280;61798;48.048;-1.928;2022-08-19T04:04:44;100962.22;;;17.61;86.34
45050;BME280;61798;48.048;-1.928;2022-08-19T04:06:50;100948.69;;;17.73;85.96
45050;BME280;61798;48.048;-1.928;2022-08-19T04:08:57;100951.53;;;17.67;86.57
45050;BME280;61798;48.048;-1.928;2022-08-19T04:11:06;100950.81;;;17.71;85.61
45050;BME280;61798;48.048;-1.928;2022-08-19T04:13:14;100949.28;;;17.63;86.39
45050;BME280;61798;48.048;-1.928;2022-08-19T04:15:19;100952.78;;;17.52;87.92
45050;BME280;61798;48.048;-1.928;2022-08-19T04:17:26;100951.22;;;17.44;88.76
45050;BME280;61798;48.048;-1.928;2022-08-19T04:19:33;100948.44;;;17.51;88.07
45050;BME280;61798;48.048;-1.928;2022-08-19T04:21:39;100941.84;;;17.59;87.40
45050;BME280;61798;48.048;-1.928;2022-08-19T04:23:45;100951.59;;;17.48;89.04
45050;BME280;61798;48.048;-1.928;2022-08-19T04:25:51;100950.56;;;17.61;86.98
45050;BME280;61798;48.048;-1.928;2022-08-19T04:27:57;100954.06;;;17.49;88.97
45050;BME280;61798;48.048;-1.928;2022-08-19T04:30:03;100952.91;;;17.57;88.67
45050;BME280;61798;48.048;-1.928;2022-08-19T04:32:09;100957.16;;;17.53;88.38
45050;BME280;61798;48.048;-1.928;2022-08-19T04:34:15;100958.09;;;17.59;88.38
45050;BME280;61798;48.048;-1.928;2022-08-19T04:36:26;100965.53;;;17.63;87.85
45050;BME280;61798;48.048;-1.928;2022-08-19T04:38:32;100960.00;;;17.58;88.71
45050;BME280;61798;48.048;-1.928;2022-08-19T04:40:41;100965.06;;;17.67;86.99
45050;BME280;61798;48.048;-1.928;2022-08-19T04:43:06;100958.31;;;17.45;89.82
45050;BME280;61798;48.048;-1.928;2022-08-19T04:45:12;100967.50;;;17.56;88.46
45050;BME280;61798;48.048;-1.928;2022-08-19T04:47:18;100957.75;;;17.55;88.33
45050;BME280;61798;48.048;-1.928;2022-08-19T04:50:13;100960.31;;;17.50;89.16
45050;BME280;61798;48.048;-1.928;2022-08-19T04:52:19;100939.69;;;17.49;87.93
45050;BME280;61798;48.048;-1.928;2022-08-19T04:54:26;100945.81;;;17.44;89.18
45050;BME280;61798;48.048;-1.928;2022-08-19T04:56:32;100943.72;;;17.46;88.41
45050;BME280;61798;48.048;-1.928;2022-08-19T04:58:40;100965.88;;;17.55;88.47
45050;BME280;61798;48.048;-1.928;2022-08-19T05:00:47;100953.00;;;17.38;89.61
45050;BME280;61798;48.048;-1.928;2022-08-19T05:02:53;100953.28;;;17.61;88.08
45050;BME280;61798;48.048;-1.928;2022-08-19T05:04:59;100960.69;;;17.53;88.48
45050;BME280;61798;48.048;-1.928;2022-08-19T05:07:09;100952.09;;;17.57;88.06
45050;BME280;61798;48.048;-1.928;2022-08-19T05:09:17;100955.16;;;17.60;88.48
45050;BME280;61798;48.048;-1.928;2022-08-19T05:11:27;100953.03;;;17.62;88.07
45050;BME280;61798;48.048;-1.928;2022-08-19T05:13:34;100936.97;;;17.37;88.96
45050;BME280;61798;48.048;-1.928;2022-08-19T05:15:42;100962.59;;;17.65;87.76
45050;BME280;61798;48.048;-1.928;2022-08-19T05:17:49;100958.34;;;17.57;88.11
45050;BME280;61798;48.048;-1.928;2022-08-19T05:20:14;100950.19;;;17.57;87.55
45050;BME280;61798;48.048;-1.928;2022-08-19T05:22:41;100957.03;;;17.60;87.84
45050;BME280;61798;48.048;-1.928;2022-08-19T05:24:48;100955.97;;;17.61;87.55
45050;BME280;61798;48.048;-1.928;2022-08-19T05:26:55;100960.72;;;17.65;87.29
45050;BME280;61798;48.048;-1.928;2022-08-19T05:29:05;100971.41;;;17.60;87.91
45050;BME280;61798;48.048;-1.928;2022-08-19T05:31:12;100972.38;;;17.66;87.78
45050;BME280;61798;48.048;-1.928;2022-08-19T05:33:19;100958.09;;;17.59;87.63
45050;BME280;61798;48.048;-1.928;2022-08-19T05:35:25;100971.03;;;17.57;88.18
45050;BME280;61798;48.048;-1.928;2022-08-19T05:37:32;100965.53;;;17.51;88.07
45050;BME280;61798;48.048;-1.928;2022-08-19T05:39:39;100967.41;;;17.51;87.99
45050;BME280;61798;48.048;-1.928;2022-08-19T05:41:50;100976.81;;;17.60;88.18
45050;BME280;61798;48.048;-1.928;2022-08-19T05:44:04;100975.63;;;17.56;88.26
45050;BME280;61798;48.048;-1.928;2022-08-19T05:46:19;100981.56;;;17.65;87.48
45050;BME280;61798;48.048;-1.928;2022-08-19T05:48:26;100971.06;;;17.69;87.26
45050;BME280;61798;48.048;-1.928;2022-08-19T05:50:35;100969.66;;;17.66;86.83
45050;BME280;61798;48.048;-1.928;2022-08-19T05:52:42;100970.34;;;17.61;87.28
45050;BME280;61798;48.048;-1.928;2022-08-19T05:54:49;100976.00;;;17.60;87.13
45050;BME280;61798;48.048;-1.928;2022-08-19T05:56:58;100973.53;;;17.58;87.23
45050;BME280;61798;48.048;-1.928;2022-08-19T05:59:06;100950.44;;;17.43;87.25
45050;BME280;61798;48.048;-1.928;2022-08-19T06:01:17;100993.44;;;17.64;87.62
45050;BME280;61798;48.048;-1.928;2022-08-19T06:03:25;100955.84;;;17.43;86.95
45050;BME280;61798;48.048;-1.928;2022-08-19T06:05:32;100987.22;;;17.63;86.83
45050;BME280;61798;48.048;-1.928;2022-08-19T06:07:39;100998.19;;;17.69;86.69
45050;BME280;61798;48.048;-1.928;2022-08-19T06:09:47;100983.75;;;17.56;87.86
45050;BME280;61798;48.048;-1.928;2022-08-19T06:11:57;100989.94;;;17.63;87.13
45050;BME280;61798;48.048;-1.928;2022-08-19T06:14:17;100962.16;;;17.37;88.19
45050;BME280;61798;48.048;-1.928;2022-08-19T06:16:25;100987.66;;;17.60;87.42
45050;BME280;61798;48.048;-1.928;2022-08-19T06:18:32;100974.81;;;17.43;88.35
45050;BME280;61798;48.048;-1.928;2022-08-19T06:20:39;100990.16;;;17.62;87.62
45050;BME280;61798;48.048;-1.928;2022-08-19T06:22:48;100996.19;;;17.76;87.05
45050;BME280;61798;48.048;-1.928;2022-08-19T06:24:57;100987.22;;;17.63;87.63
45050;BME280;61798;48.048;-1.928;2022-08-19T06:27:04;100987.66;;;17.60;87.92
45050;BME280;61798;48.048;-1.928;2022-08-19T06:29:16;100994.28;;;17.64;87.89
45050;BME280;61798;48.048;-1.928;2022-08-19T06:31:33;100992.75;;;17.69;87.65
45050;BME280;61798;48.048;-1.928;2022-08-19T06:33:42;100995.09;;;17.65;88.00
45050;BME280;61798;48.048;-1.928;2022-08-19T06:35:49;100993.47;;;17.76;87.07
45050;BME280;61798;48.048;-1.928;2022-08-19T06:37:56;100993.81;;;17.68;87.75
45050;BME280;61798;48.048;-1.928;2022-08-19T06:40:04;100969.78;;;17.59;87.66
45050;BME280;61798;48.048;-1.928;2022-08-19T06:42:12;101000.41;;;17.72;88.25
45050;BME280;61798;48.048;-1.928;2022-08-19T06:44:25;100992.28;;;17.72;87.45
45050;BME280;61798;48.048;-1.928;2022-08-19T06:46:32;100974.72;;;17.62;88.43
45050;BME280;61798;48.048;-1.928;2022-08-19T06:48:39;100998.91;;;17.76;87.96
45050;BME280;61798;48.048;-1.928;2022-08-19T06:50:47;101001.84;;;17.74;87.91
45050;BME280;61798;48.048;-1.928;2022-08-19T06:52:55;100989.34;;;17.73;88.18
45050;BME280;61798;48.048;-1.928;2022-08-19T06:55:03;100983.34;;;17.71;88.43
45050;BME280;61798;48.048;-1.928;2022-08-19T06:57:10;100994.56;;;17.75;88.35
45050;BME280;61798;48.048;-1.928;2022-08-19T06:59:23;100999.50;;;17.78;88.18
45050;BME280;61798;48.048;-1.928;2022-08-19T07:01:43;101002.09;;;17.85;87.85
45050;BME280;61798;48.048;-1.928;2022-08-19T07:03:53;100987.47;;;17.74;88.31
45050;BME280;61798;48.048;-1.928;2022-08-19T07:06:12;101002.78;;;17.80;88.88
45050;BME280;61798;48.048;-1.928;2022-08-19T07:08:22;100992.41;;;17.77;88.71
45050;BME280;61798;48.048;-1.928;2022-08-19T07:10:30;101008.84;;;17.94;87.50
45050;BME280;61798;48.048;-1.928;2022-08-19T07:12:40;100989.94;;;17.88;87.60
45050;BME280;61798;48.048;-1.928;2022-08-19T07:14:48;101008.38;;;17.97;87.53
45050;BME280;61798;48.048;-1.928;2022-08-19T07:16:56;101017.47;;;18.03;87.66
45050;BME280;61798;48.048;-1.928;2022-08-19T07:19:03;101007.53;;;17.97;87.88
45050;BME280;61798;48.048;-1.928;2022-08-19T07:21:22;101027.50;;;18.15;87.22
45050;BME280;61798;48.048;-1.928;2022-08-19T07:23:31;101014.97;;;18.14;87.30
45050;BME280;61798;48.048;-1.928;2022-08-19T07:25:39;101015.56;;;18.16;87.80
45050;BME280;61798;48.048;-1.928;2022-08-19T07:27:49;101017.22;;;18.17;87.50
45050;BME280;61798;48.048;-1.928;2022-08-19T07:29:55;101006.84;;;18.14;86.59
45050;BME280;61798;48.048;-1.928;2022-08-19T07:32:04;101026.31;;;18.23;86.66
45050;BME280;61798;48.048;-1.928;2022-08-19T07:34:13;101023.72;;;18.28;87.42
45050;BME280;61798;48.048;-1.928;2022-08-19T07:36:24;101037.91;;;18.30;86.49
45050;BME280;61798;48.048;-1.928;2022-08-19T07:38:33;101014.19;;;18.25;86.32
45050;BME280;61798;48.048;-1.928;2022-08-19T07:40:42;101023.38;;;18.36;85.95
45050;BME280;61798;48.048;-1.928;2022-08-19T07:42:51;101026.44;;;18.40;86.67
45050;BME280;61798;48.048;-1.928;2022-08-19T07:44:58;101018.78;;;18.37;86.40
45050;BME280;61798;48.048;-1.928;2022-08-19T07:47:05;101008.97;;;18.36;86.78
45050;BME280;61798;48.048;-1.928;2022-08-19T07:49:12;101014.06;;;18.44;86.11
45050;BME280;61798;48.048;-1.928;2022-08-19T07:51:22;100992.59;;;18.43;87.06
45050;BME280;61798;48.048;-1.928;2022-08-19T07:53:30;101016.63;;;18.63;84.91
45050;BME280;61798;48.048;-1.928;2022-08-19T07:55:36;101024.75;;;18.63;85.02
45050;BME280;61798;48.048;-1.928;2022-08-19T07:57:42;101021.22;;;18.75;84.74
45050;BME280;61798;48.048;-1.928;2022-08-19T07:59:48;100999.06;;;18.54;84.53
45050;BME280;61798;48.048;-1.928;2022-08-19T08:01:58;101016.97;;;18.79;85.04
45050;BME280;61798;48.048;-1.928;2022-08-19T08:04:07;101003.00;;;18.87;84.58
45050;BME280;61798;48.048;-1.928;2022-08-19T08:06:31;101015.03;;;18.91;84.32
45050;BME280;61798;48.048;-1.928;2022-08-19T08:08:56;101014.09;;;18.98;84.24
45050;BME280;61798;48.048;-1.928;2022-08-19T08:11:18;100995.31;;;18.96;84.06
45050;BME280;61798;48.048;-1.928;2022-08-19T08:13:26;101001.41;;;19.03;83.58
45050;BME280;61798;48.048;-1.928;2022-08-19T08:15:32;101013.66;;;19.30;83.27
45050;BME280;61798;48.048;-1.928;2022-08-19T08:17:38;101010.63;;;19.44;83.57
45050;BME280;61798;48.048;-1.928;2022-08-19T08:19:46;101007.75;;;19.51;83.58
45050;BME280;61798;48.048;-1.928;2022-08-19T08:21:55;101011.31;;;19.69;81.72
45050;BME280;61798;48.048;-1.928;2022-08-19T08:24:01;101012.47;;;19.73;81.31
45050;BME280;61798;48.048;-1.928;2022-08-19T08:26:07;100997.06;;;19.61;81.69
45050;BME280;61798;48.048;-1.928;2022-08-19T08:28:13;101019.69;;;19.67;81.94
45050;BME280;61798;48.048;-1.928;2022-08-19T08:30:22;101014.00;;;19.51;81.85
45050;BME280;61798;48.048;-1.928;2022-08-19T08:32:28;100993.91;;;19.52;81.73
45050;BME280;61798;48.048;-1.928;2022-08-19T08:34:34;101002.94;;;19.70;80.80
45050;BME280;61798;48.048;-1.928;2022-08-19T08:36:43;101017.59;;;19.86;81.06
45050;BME280;61798;48.048;-1.928;2022-08-19T08:38:50;101014.44;;;20.12;81.23
45050;BME280;61798;48.048;-1.928;2022-08-19T08:41:01;101011.84;;;20.17;79.73
45050;BME280;61798;48.048;-1.928;2022-08-19T08:43:27;101012.78;;;20.11;79.44
45050;BME280;61798;48.048;-1.928;2022-08-19T08:45:44;101012.78;;;20.11;79.80
45050;BME280;61798;48.048;-1.928;2022-08-19T08:47:53;101009.84;;;20.13;79.81
45050;BME280;61798;48.048;-1.928;2022-08-19T08:50:09;101015.13;;;20.20;79.34
45050;BME280;61798;48.048;-1.928;2022-08-19T08:52:24;101021.00;;;20.51;78.55
45050;BME280;61798;48.048;-1.928;2022-08-19T08:54:43;101024.22;;;20.48;78.09
45050;BME280;61798;48.048;-1.928;2022-08-19T08:56:51;101019.94;;;20.52;78.50
45050;BME280;61798;48.048;-1.928;2022-08-19T08:59:05;101025.69;;;20.56;78.33
45050;BME280;61798;48.048;-1.928;2022-08-19T09:01:13;101020.31;;;20.04;79.13
45050;BME280;61798;48.048;-1.928;2022-08-19T09:03:27;101015.44;;;20.06;79.43
45050;BME280;61798;48.048;-1.928;2022-08-19T09:08:00;101035.91;;;20.26;79.78
45050;BME280;61798;48.048;-1.928;2022-08-19T09:10:24;101016.59;;;20.10;78.97
45050;BME280;61798;48.048;-1.928;2022-08-19T09:12:46;101034.81;;;20.27;78.84
45050;BME280;61798;48.048;-1.928;2022-08-19T09:15:12;101038.69;;;20.31;79.35
45050;BME280;61798;48.048;-1.928;2022-08-19T09:17:22;101025.16;;;20.36;78.80
45050;BME280;61798;48.048;-1.928;2022-08-19T09:19:50;101030.72;;;20.64;77.82
45050;BME280;61798;48.048;-1.928;2022-08-19T09:21:57;101036.16;;;20.64;77.94
45050;BME280;61798;48.048;-1.928;2022-08-19T09:24:06;101024.31;;;20.53;77.56
45050;BME280;61798;48.048;-1.928;2022-08-19T09:26:17;101028.22;;;20.63;78.03
45050;BME280;61798;48.048;-1.928;2022-08-19T09:28:25;101014.94;;;20.26;78.08
45050;BME280;61798;48.048;-1.928;2022-08-19T09:30:39;101037.50;;;20.62;78.16
45050;BME280;61798;48.048;-1.928;2022-08-19T09:32:45;101038.75;;;20.54;77.70
45050;BME280;61798;48.048;-1.928;2022-08-19T09:34:51;101027.31;;;20.34;78.20
45050;BME280;61798;48.048;-1.928;2022-08-19T09:37:00;101038.84;;;20.42;78.15
45050;BME280;61798;48.048;-1.928;2022-08-19T09:39:06;101009.41;;;20.38;77.74
45050;BME280;61798;48.048;-1.928;2022-08-19T09:41:14;101046.94;;;20.76;77.91
45050;BME280;61798;48.048;-1.928;2022-08-19T09:43:20;101034.00;;;20.66;76.93
45050;BME280;61798;48.048;-1.928;2022-08-19T09:45:27;101045.28;;;20.75;77.17
45050;BME280;61798;48.048;-1.928;2022-08-19T09:47:32;101044.72;;;20.73;76.99
45050;BME280;61798;48.048;-1.928;2022-08-19T09:49:41;101024.88;;;20.55;77.76
45050;BME280;61798;48.048;-1.928;2022-08-19T09:51:52;101019.63;;;20.48;77.36
45050;BME280;61798;48.048;-1.928;2022-08-19T09:54:03;101014.88;;;20.21;78.20
45050;BME280;61798;48.048;-1.928;2022-08-19T09:56:11;101044.31;;;20.42;78.39
45050;BME280;61798;48.048;-1.928;2022-08-19T09:58:19;101050.72;;;20.35;78.20
45050;BME280;61798;48.048;-1.928;2022-08-19T10:00:25;101019.06;;;20.29;78.53
45050;BME280;61798;48.048;-1.928;2022-08-19T10:02:36;101034.41;;;20.35;78.16
45050;BME280;61798;48.048;-1.928;2022-08-19T10:04:42;101041.72;;;20.52;77.82
45050;BME280;61798;48.048;-1.928;2022-08-19T10:07:08;101032.72;;;20.52;77.11
45050;BME280;61798;48.048;-1.928;2022-08-19T10:09:17;101037.34;;;20.51;77.35
45050;BME280;61798;48.048;-1.928;2022-08-19T10:11:24;101031.25;;;20.44;78.00
45050;BME280;61798;48.048;-1.928;2022-08-19T10:13:32;101030.69;;;20.42;79.31
45050;BME280;61798;48.048;-1.928;2022-08-19T10:15:42;101038.16;;;20.52;78.20
45050;BME280;61798;48.048;-1.928;2022-08-19T10:17:49;101037.84;;;20.70;78.25
45050;BME280;61798;48.048;-1.928;2022-08-19T10:19:55;101036.31;;;20.97;77.20
45050;BME280;61798;48.048;-1.928;2022-08-19T10:22:04;101037.19;;;21.26;75.84
45050;BME280;61798;48.048;-1.928;2022-08-19T10:24:11;101030.22;;;21.12;75.56
45050;BME280;61798;48.048;-1.928;2022-08-19T10:26:21;101047.13;;;20.92;76.08
45050;BME280;61798;48.048;-1.928;2022-08-19T10:28:29;101047.81;;;21.05;75.61
45050;BME280;61798;48.048;-1.928;2022-08-19T10:30:36;101021.75;;;21.09;75.46
45050;BME280;61798;48.048;-1.928;2022-08-19T10:32:43;101031.56;;;21.10;75.30
45050;BME280;61798;48.048;-1.928;2022-08-19T10:34:52;101033.94;;;21.29;75.33
45050;BME280;61798;48.048;-1.928;2022-08-19T10:37:04;101043.78;;;21.30;74.85
45050;BME280;61798;48.048;-1.928;2022-08-19T10:39:14;101019.13;;;21.19;74.88
45050;BME280;61798;48.048;-1.928;2022-08-19T10:41:23;101035.28;;;21.54;73.87
45050;BME280;61798;48.048;-1.928;2022-08-19T10:43:31;101036.53;;;21.74;73.06
45050;BME280;61798;48.048;-1.928;2022-08-19T10:45:51;101021.78;;;21.42;73.02
45050;BME280;61798;48.048;-1.928;2022-08-19T10:48:00;101024.34;;;21.49;73.17
45050;BME280;61798;48.048;-1.928;2022-08-19T10:50:06;101028.44;;;21.51;72.55
45050;BME280;61798;48.048;-1.928;2022-08-19T10:52:35;101031.28;;;21.95;72.24
45050;BME280;61798;48.048;-1.928;2022-08-19T10:54:43;101030.22;;;21.68;71.74
45050;BME280;61798;48.048;-1.928;2022-08-19T10:57:08;101037.63;;;21.73;72.74
45050;BME280;61798;48.048;-1.928;2022-08-19T10:59:15;101035.22;;;21.76;74.10
45050;BME280;61798;48.048;-1.928;2022-08-19T11:01:25;101039.41;;;21.57;74.29
45050;BME280;61798;48.048;-1.928;2022-08-19T11:03:33;101011.22;;;21.45;74.18
45050;BME280;61798;48.048;-1.928;2022-08-19T11:05:42;101014.59;;;21.58;74.01
45050;BME280;61798;48.048;-1.928;2022-08-19T11:07:49;101020.53;;;21.83;73.57
45050;BME280;61798;48.048;-1.928;2022-08-19T11:09:58;101020.97;;;21.69;73.34
45050;BME280;61798;48.048;-1.928;2022-08-19T11:12:06;101019.25;;;21.58;72.77